Clackamas, Oregon
Current Conditions -  °F | °C
As of 1:08 PM on Thursday 23 Oct 2014 (Local Time) from KTTD Reporting Station
Heavy Rain Heavy Rain  
Wind Chill: 11°   Ceiling: 2500
Heat Index: 11°   Visibility: 1mi
Dew Point:   Wind: 5mph
Humidity: 83%   Direction: 240°WSW
Pressure: 29.91"   Gusts: 22mph
Location:  45.41°N, 122.55°W
Report Text: KTTD 232008Z 24004G19KT 1SM +RA FEW016 BKN025 OVC047 11/08 A2991 RMK AO2 P0038 T01110083
Loading
Personal Weather Stations






























Interactive Weather Map
Tropical Storm Tracking
New forecast layout! Learn more

10-Day Weather Forecast

Advertisements
Track Severe Weather on mobile